Terminal Aerodrome Forecast
Issued by NWS

Home | Current Version | Previous Version | Text Only | Print | Product List | Glossary On
Versions: 1 2 3 4 5 6 7 8 9 10 11 12
255
FTUS44 KTSA 232320
TAFXNA
TAF
KXNA 232320Z 2400/2424 19005KT P6SM FEW060 SCT250
     FM240200 16003KT P6SM SCT250
     FM241500 22006KT P6SM SCT050 PROB30 2420/2424 5SM -TSRA
      BKN040CB=

USA.gov is the U.S. government's official web portal to all federal, state and local government web resources and services.